No particular awareness of the weather is required.    There are no Weather-warnings


Meteo18 Weather Cam more information Meteo18 Weather Cam


Thunder radar more information blitzortung!


Rain radar more information rain snow radar


Visit our other weather sites:

Template documentation
and downloads

And another site



Weather Underground History page Text

Daily Summary for May 29, 2017 Units:  English    Metric   Both
« Previous Day
Next Day »
Daily Weekly Monthly Yearly Custom
  High: Low: Average:
Temperature: TemperatureC °F 15.7 °F 22.4 °F
Dew Point: DewpointC °F 11.7 °F 15.2 °F
Humidity: Humidity % 40 % 66 %
Wind Speed: WindSpeedKMH mph 0.0 mph 3.6 mph
Wind Gust: WindSpeedGustKMH mph - -
Wind:- - WSW
Pressure: PressurehPa in 1014.4 in -
Precipitation: 0.0 in    
Historical Graphs
 
 
Tabular Data for May 29, 2017
Time Temperature Dew Point Pressure Wind Wind Speed Wind Gust Humidity Rainfall Rate (Hourly)
TemperatureC °F DewpointC °F PressurehPa in Calm     Humidity % HourlyPrecipMM in
00:07 21.3 °F 17.5 °F 1015.5 in Calm   3.2 mph 79 % 0.0 in
00:12 21.1 °F 17.3 °F 1015.5 in Calm   3.2 mph 79 % 0.0 in
00:17 21.3 °F 17.5 °F 1015.5 in Calm     79 % 0.0 in
00:22 21.4 °F 17.2 °F 1015.5 in Calm     77 % 0.0 in
00:32 20.6 °F 17.2 °F 1015.5 in WNW 4.8 mph   81 % 0.0 in
00:37 20.3 °F 17.1 °F 1015.5 in WNW 1.6 mph 4.8 mph 82 % 0.0 in
00:42 20.7 °F 17.1 °F 1015.5 in Calm   4.8 mph 80 % 0.0 in
00:52 20.7 °F 16.9 °F 1015.5 in Calm   4.8 mph 79 % 0.0 in
00:57 20.7 °F 17.1 °F 1015.5 in Calm   3.2 mph 80 % 0.0 in
01:02 20.8 °F 17.0 °F 1015.5 in Calm   3.2 mph 79 % 0.0 in
01:12 20.3 °F 16.7 °F 1015.5 in Calm   1.6 mph 80 % 0.0 in
01:17 19.9 °F 16.7 °F 1015.5 in Calm   1.6 mph 82 % 0.0 in
01:22 19.8 °F 16.6 °F 1015.5 in Calm     82 % 0.0 in
01:32 20.1 °F 16.5 °F 1015.5 in Calm     80 % 0.0 in
01:42 19.7 °F 16.5 °F 1015.5 in Calm     82 % 0.0 in
01:47 19.6 °F 16.6 °F 1015.5 in Calm     83 % 0.0 in
01:52 19.4 °F 16.4 °F 1015.5 in Calm     83 % 0.0 in
01:57 19.1 °F 16.1 °F 1015.5 in Calm     83 % 0.0 in
02:02 18.8 °F 16.0 °F 1015.5 in Calm     84 % 0.0 in
02:12 18.8 °F 16.2 °F 1015.5 in Calm     85 % 0.0 in
02:17 18.9 °F 16.1 °F 1015.5 in Calm     84 % 0.0 in
02:22 18.9 °F 16.1 °F 1015.5 in Calm     84 % 0.0 in
02:27 18.8 °F 16.0 °F 1015.5 in Calm     84 % 0.0 in
02:32 18.7 °F 16.1 °F 1015.1 in Calm     85 % 0.0 in
02:37 18.6 °F 16.0 °F 1015.1 in Calm     85 % 0.0 in
02:42 18.4 °F 15.8 °F 1015.1 in Calm     85 % 0.0 in
02:47 18.2 °F 15.8 °F 1015.1 in Calm     86 % 0.0 in
02:52 17.9 °F 15.5 °F 1015.1 in Calm     86 % 0.0 in
02:57 17.8 °F 15.6 °F 1015.1 in Calm     87 % 0.0 in
03:02 17.8 °F 15.8 °F 1015.1 in Calm     88 % 0.0 in
03:12 17.4 °F 15.6 °F 1015.1 in Calm     89 % 0.0 in
03:17 17.5 °F 15.7 °F 1015.1 in Calm     89 % 0.0 in
03:22 17.4 °F 15.6 °F 1015.1 in Calm     89 % 0.0 in
03:27 17.4 °F 15.6 °F 1015.1 in Calm     89 % 0.0 in
03:32 17.2 °F 15.4 °F 1015.1 in Calm     89 % 0.0 in
03:37 17.1 °F 15.4 °F 1015.1 in Calm     90 % 0.0 in
03:42 17.0 °F 15.3 °F 1015.5 in Calm     90 % 0.0 in
03:47 16.8 °F 15.1 °F 1015.5 in Calm     90 % 0.0 in
03:52 16.7 °F 15.2 °F 1015.1 in Calm     91 % 0.0 in
03:57 16.6 °F 15.1 °F 1015.5 in Calm     91 % 0.0 in
04:02 16.6 °F 15.3 °F 1015.5 in Calm     92 % 0.0 in
04:12 16.7 °F 15.4 °F 1015.1 in Calm     92 % 0.0 in
04:17 16.7 °F 15.4 °F 1015.1 in Calm     92 % 0.0 in
04:22 16.7 °F 15.4 °F 1015.1 in Calm     92 % 0.0 in
04:32 16.6 °F 15.3 °F 1015.1 in Calm     92 % 0.0 in
04:42 16.6 °F 15.5 °F 1015.5 in Calm     93 % 0.0 in
04:47 16.4 °F 15.1 °F 1015.1 in Calm     92 % 0.0 in
04:52 16.2 °F 14.9 °F 1015.5 in Calm   3.2 mph 92 % 0.0 in
04:57 16.1 °F 15.0 °F 1015.5 in Calm   3.2 mph 93 % 0.0 in
05:02 16.1 °F 15.0 °F 1015.5 in Calm   3.2 mph 93 % 0.0 in
05:12 16.2 °F 15.1 °F 1015.1 in Calm     93 % 0.0 in
05:17 16.3 °F 15.2 °F 1015.1 in Calm     93 % 0.0 in
05:22 16.4 °F 15.4 °F 1015.1 in Calm     94 % 0.0 in
05:32 16.3 °F 15.2 °F 1014.8 in Calm     93 % 0.0 in
05:42 16.1 °F 15.0 °F 1014.8 in Calm     93 % 0.0 in
05:47 16.0 °F 14.9 °F 1014.8 in Calm     93 % 0.0 in
05:52 15.8 °F 14.7 °F 1014.8 in Calm     93 % 0.0 in
06:02 15.8 °F 14.8 °F 1014.8 in Calm   1.6 mph 94 % 0.0 in
06:12 15.7 °F 14.7 °F 1014.8 in WNW 1.6 mph 1.6 mph 94 % 0.0 in
06:17 15.7 °F 14.7 °F 1014.8 in WNW 1.6 mph 1.6 mph 94 % 0.0 in
06:22 15.8 °F 15.0 °F 1015.1 in WNW 1.6 mph 3.2 mph 95 % 0.0 in
06:37 15.9 °F 15.1 °F 1015.1 in Calm   3.2 mph 95 % 0.0 in
06:42 16.2 °F 15.4 °F 1015.1 in Calm   3.2 mph 95 % 0.0 in
06:47 16.6 °F 15.8 °F 1015.1 in Calm   3.2 mph 95 % 0.0 in
06:52 16.5 °F 15.4 °F 1015.1 in Calm     93 % 0.0 in
07:02 16.9 °F 15.9 °F 1015.1 in Calm     94 % 0.0 in
07:07 17.2 °F 16.1 °F 1015.1 in Calm     93 % 0.0 in
07:12 17.6 °F 16.5 °F 1015.1 in Calm     93 % 0.0 in
07:17 17.8 °F 16.1 °F 1015.1 in Calm     90 % 0.0 in
07:22 17.8 °F 16.0 °F 1015.1 in Calm     89 % 0.0 in
07:32 18.4 °F 15.6 °F 1015.5 in Calm     84 % 0.0 in
07:37 18.9 °F 15.6 °F 1015.5 in Calm     81 % 0.0 in
07:42 19.0 °F 16.0 °F 1015.5 in Calm     83 % 0.0 in
07:47 19.1 °F 15.8 °F 1015.5 in Calm     81 % 0.0 in
07:52 19.3 °F 15.0 °F 1015.5 in Calm     76 % 0.0 in
08:02 19.6 °F 14.4 °F 1015.5 in Calm   3.2 mph 72 % 0.0 in
08:12 19.9 °F 14.5 °F 1015.5 in Calm   4.8 mph 71 % 0.0 in
08:17 20.4 °F 15.0 °F 1015.5 in Calm   4.8 mph 71 % 0.0 in
08:22 20.8 °F 15.1 °F 1015.1 in Calm   4.8 mph 70 % 0.0 in
08:27 21.1 °F 15.4 °F 1015.5 in Calm   4.8 mph 70 % 0.0 in
08:32 21.1 °F 15.2 °F 1015.5 in Calm   4.8 mph 69 % 0.0 in
08:37 21.2 °F 15.1 °F 1015.5 in Calm   4.8 mph 68 % 0.0 in
08:42 21.2 °F 15.1 °F 1015.5 in Calm   6.4 mph 68 % 0.0 in
08:52 21.3 °F 14.7 °F 1015.5 in SW 1.6 mph 6.4 mph 66 % 0.0 in
08:57 21.3 °F 14.5 °F 1015.5 in SSW 3.2 mph 6.4 mph 65 % 0.0 in
09:02 21.2 °F 14.4 °F 1015.5 in SSE 3.2 mph 8.0 mph 65 % 0.0 in
09:12 21.5 °F 14.6 °F 1015.5 in SSE 3.2 mph 9.7 mph 65 % 0.0 in
09:22 21.8 °F 14.9 °F 1015.5 in ESE 3.2 mph 6.4 mph 65 % 0.0 in
09:32 22.1 °F 14.7 °F 1015.5 in Calm   9.7 mph 63 % 0.0 in
09:42 22.6 °F 15.4 °F 1015.5 in South 1.6 mph 8.0 mph 64 % 0.0 in
09:52 23.0 °F 15.6 °F 1015.5 in ESE 4.8 mph 8.0 mph 63 % 0.0 in
10:02 23.4 °F 16.2 °F 1015.5 in Calm   6.4 mph 64 % 0.0 in
10:12 23.8 °F 15.3 °F 1015.5 in SSW 3.2 mph 6.4 mph 59 % 0.0 in
10:17 23.7 °F 14.9 °F 1015.5 in Calm   6.4 mph 58 % 0.0 in
10:22 24.2 °F 15.4 °F 1015.5 in SSE 3.2 mph 8.0 mph 58 % 0.0 in
10:32 24.3 °F 15.8 °F 1015.1 in SSW 1.6 mph 9.7 mph 59 % 0.0 in
10:42 24.7 °F 15.9 °F 1015.1 in SSW 3.2 mph 11.3 mph 58 % 0.0 in
10:47 25.1 °F 16.3 °F 1015.1 in SE 3.2 mph 11.3 mph 58 % 0.0 in
10:52 25.3 °F 15.3 °F 1015.1 in SSW 9.7 mph 11.3 mph 54 % 0.0 in
10:57 25.5 °F 15.8 °F 1015.1 in SE 3.2 mph 11.3 mph 55 % 0.0 in
11:02 25.7 °F 15.1 °F 1015.1 in SW 6.4 mph 11.3 mph 52 % 0.0 in
11:12 25.4 °F 13.9 °F 1015.1 in SSW 6.4 mph 14.5 mph 49 % 0.0 in
11:22 25.5 °F 13.7 °F 1015.1 in SSW 3.2 mph 16.1 mph 48 % 0.0 in
11:27 25.6 °F 13.8 °F 1015.1 in SW 6.4 mph 16.1 mph 48 % 0.0 in
11:32 25.9 °F 13.4 °F 1015.1 in SW 11.3 mph 14.5 mph 46 % 0.0 in
11:42 26.1 °F 12.9 °F 1015.1 in SW 14.5 mph 16.1 mph 44 % 0.0 in
11:52 26.0 °F 11.7 °F 1015.1 in WSW 9.7 mph 19.3 mph 41 % 0.0 in
11:57 25.9 °F 12.0 °F 1015.1 in West 9.7 mph 19.3 mph 42 % 0.0 in
12:02 26.1 °F 13.2 °F 1015.1 in West 11.3 mph 17.7 mph 45 % 0.0 in
12:07 26.1 °F 12.9 °F 1015.1 in SSW 4.8 mph 17.7 mph 44 % 0.0 in
12:12 26.3 °F 13.8 °F 1015.1 in West 8.0 mph 16.1 mph 46 % 0.0 in
12:17 26.2 °F 13.0 °F 1015.5 in SW 11.3 mph 16.1 mph 44 % 0.0 in
12:27 26.2 °F 13.0 °F 1015.5 in West 12.9 mph 19.3 mph 44 % 0.0 in
12:32 26.2 °F 12.6 °F 1015.5 in West 12.9 mph 19.3 mph 43 % 0.0 in
12:37 26.1 °F 12.2 °F 1015.5 in SW 6.4 mph 20.9 mph 42 % 0.0 in
12:42 26.3 °F 13.1 °F 1015.5 in WNW 9.7 mph 20.9 mph 44 % 0.0 in
12:47 26.5 °F 13.6 °F 1015.1 in West 3.2 mph 20.9 mph 45 % 0.0 in
12:52 26.5 °F 13.3 °F 1015.5 in WNW 4.8 mph 19.3 mph 44 % 0.0 in
13:02 26.4 °F 12.5 °F 1015.5 in SW 11.3 mph 19.3 mph 42 % 0.0 in
13:07 26.6 °F 12.6 °F 1015.5 in SW 6.4 mph 19.3 mph 42 % 0.0 in
13:17 26.4 °F 12.5 °F 1015.5 in WSW 11.3 mph 22.5 mph 42 % 0.0 in
13:22 26.3 °F 13.4 °F 1015.5 in West 6.4 mph 22.5 mph 45 % 0.0 in
13:27 26.2 °F 12.6 °F 1015.5 in West 4.8 mph 22.5 mph 43 % 0.0 in
13:32 26.2 °F 13.0 °F 1015.5 in WSW 6.4 mph 16.1 mph 44 % 0.0 in
13:37 26.1 °F 12.9 °F 1015.5 in WNW 9.7 mph 16.1 mph 44 % 0.0 in
13:42 26.2 °F 13.3 °F 1015.5 in WNW 6.4 mph 16.1 mph 45 % 0.0 in
13:52 26.3 °F 13.8 °F 1015.5 in WNW 3.2 mph 17.7 mph 46 % 0.0 in
13:57 26.6 °F 14.0 °F 1015.5 in West 6.4 mph 17.7 mph 46 % 0.0 in
14:02 26.7 °F 14.5 °F 1015.1 in WNW 9.7 mph 17.7 mph 47 % 0.0 in
14:12 27.1 °F 13.4 °F 1015.1 in West 8.0 mph 17.7 mph 43 % 0.0 in
14:17 27.3 °F 13.6 °F 1015.1 in South 6.4 mph 17.7 mph 43 % 0.0 in
14:22 27.3 °F 13.3 °F 1015.1 in SE 1.6 mph 17.7 mph 42 % 0.0 in
14:32 27.6 °F 13.9 °F 1015.1 in WNW 1.6 mph 11.3 mph 43 % 0.0 in
14:37 27.7 °F 14.3 °F 1015.1 in Calm   11.3 mph 44 % 0.0 in
14:42 28.1 °F 14.3 °F 1015.1 in ESE 3.2 mph 11.3 mph 43 % 0.0 in
14:47 28.2 °F 14.8 °F 1015.1 in WNW 3.2 mph 11.3 mph 44 % 0.0 in
14:52 28.2 °F 14.4 °F 1015.1 in SW 1.6 mph 11.3 mph 43 % 0.0 in
14:57 28.4 °F 14.2 °F 1015.1 in SSW 3.2 mph 11.3 mph 42 % 0.0 in
15:02 28.1 °F 13.2 °F 1015.1 in SW 11.3 mph 11.3 mph 40 % 0.0 in
15:12 27.8 °F 14.4 °F 1015.1 in SW 6.4 mph 20.9 mph 44 % 0.0 in
15:17 27.9 °F 15.5 °F 1015.1 in SW 6.4 mph 20.9 mph 47 % 0.0 in
15:22 28.1 °F 14.7 °F 1015.1 in WSW 14.5 mph 20.9 mph 44 % 0.0 in
15:32 27.6 °F 14.9 °F 1015.1 in West 3.2 mph 20.9 mph 46 % 0.0 in
15:37 27.7 °F 14.7 °F 1015.1 in SSW 6.4 mph 20.9 mph 45 % 0.0 in
15:47 27.8 °F 15.1 °F 1015.1 in SW 12.9 mph 19.3 mph 46 % 0.0 in
15:52 27.4 °F 14.8 °F 1015.1 in SSW 6.4 mph 19.3 mph 46 % 0.0 in
15:57 27.6 °F 14.9 °F 1015.1 in SSW 6.4 mph 19.3 mph 46 % 0.0 in
16:02 27.7 °F 15.7 °F 1015.1 in West 8.0 mph 19.3 mph 48 % 0.0 in
16:07 28.0 °F 15.3 °F 1015.1 in South 11.3 mph 14.5 mph 46 % 0.0 in
16:12 27.8 °F 14.8 °F 1015.1 in SW 4.8 mph 14.5 mph 45 % 0.0 in
16:17 27.8 °F 15.1 °F 1015.1 in WSW 9.7 mph 20.9 mph 46 % 0.0 in
16:22 28.3 °F 15.2 °F 1015.1 in West 8.0 mph 20.9 mph 45 % 0.0 in
16:27 27.9 °F 15.5 °F 1014.8 in SW 16.1 mph 17.7 mph 47 % 0.0 in
16:32 27.9 °F 15.5 °F 1014.8 in WSW 9.7 mph 17.7 mph 47 % 0.0 in
16:37 27.9 °F 15.5 °F 1014.8 in SW 4.8 mph 17.7 mph 47 % 0.0 in
16:42 27.7 °F 16.9 °F 1014.8 in WSW 11.3 mph 17.7 mph 52 % 0.0 in
16:47 27.9 °F 17.7 °F 1014.8 in WNW 4.8 mph 16.1 mph 54 % 0.0 in
16:52 27.8 °F 17.3 °F 1014.8 in West 6.4 mph 19.3 mph 53 % 0.0 in
17:02 27.3 °F 16.9 °F 1014.8 in West 4.8 mph 19.3 mph 53 % 0.0 in
17:12 27.2 °F 16.8 °F 1014.8 in WNW 6.4 mph 17.7 mph 53 % 0.0 in
17:17 27.3 °F 16.3 °F 1014.8 in West 6.4 mph 16.1 mph 51 % 0.0 in
17:22 27.5 °F 17.7 °F 1014.8 in WSW 9.7 mph 16.1 mph 55 % 0.0 in
17:27 27.6 °F 15.9 °F 1014.8 in WNW 6.4 mph 16.1 mph 49 % 0.0 in
17:32 27.6 °F 13.5 °F 1014.8 in SW 9.7 mph 12.9 mph 42 % 0.0 in
17:42 27.8 °F 13.7 °F 1014.8 in NW 1.6 mph 16.1 mph 42 % 0.0 in
17:47 27.9 °F 13.4 °F 1014.4 in WNW 3.2 mph 16.1 mph 41 % 0.0 in
17:52 27.9 °F 15.5 °F 1014.4 in Calm   12.9 mph 47 % 0.0 in
17:57 27.8 °F 16.1 °F 1014.4 in WSW 3.2 mph 9.7 mph 49 % 0.0 in
18:02 27.9 °F 15.5 °F 1014.4 in SW 3.2 mph 9.7 mph 47 % 0.0 in
18:07 27.7 °F 14.3 °F 1014.4 in SSW 4.8 mph 9.7 mph 44 % 0.0 in
18:12 27.8 °F 14.4 °F 1014.4 in West 4.8 mph 9.7 mph 44 % 0.0 in
18:17 27.8 °F 15.5 °F 1014.4 in WNW 1.6 mph 9.7 mph 47 % 0.0 in
18:22 27.7 °F 14.7 °F 1014.4 in SW 8.0 mph 9.7 mph 45 % 0.0 in
18:32 27.4 °F 15.7 °F 1014.4 in WSW 11.3 mph 11.3 mph 49 % 0.0 in
18:37 27.2 °F 16.2 °F 1014.4 in SW 3.2 mph 14.5 mph 51 % 0.0 in
18:42 27.2 °F 16.8 °F 1014.4 in SW 6.4 mph 14.5 mph 53 % 0.0 in
18:52 27.0 °F 16.6 °F 1014.8 in WSW 1.6 mph 12.9 mph 53 % 0.0 in
18:57 27.1 °F 17.0 °F 1014.4 in WSW 11.3 mph 11.3 mph 54 % 0.0 in
19:02 26.9 °F 16.8 °F 1014.4 in West 4.8 mph 11.3 mph 54 % 0.0 in
19:12 26.4 °F 16.9 °F 1014.4 in West 6.4 mph 11.3 mph 56 % 0.0 in
19:17 26.2 °F 17.0 °F 1014.4 in West 6.4 mph 12.9 mph 57 % 0.0 in
19:22 26.1 °F 17.2 °F 1014.4 in WNW 12.9 mph 12.9 mph 58 % 0.0 in
19:32 25.1 °F 17.6 °F 1014.4 in West 17.7 mph 17.7 mph 63 % 0.0 in
19:37 24.4 °F 17.1 °F 1014.4 in WNW 6.4 mph 20.9 mph 64 % 0.0 in
19:42 24.0 °F 17.0 °F 1014.8 in WNW 8.0 mph 27.4 mph 65 % 0.0 in
19:52 23.7 °F 17.2 °F 1014.8 in WNW 1.6 mph 27.4 mph 67 % 0.0 in
19:57 23.6 °F 17.1 °F 1014.8 in WNW 4.8 mph 14.5 mph 67 % 0.0 in
20:02 23.4 °F 16.9 °F 1014.8 in WNW 3.2 mph 14.5 mph 67 % 0.0 in
20:12 23.2 °F 16.7 °F 1014.8 in WNW 3.2 mph 14.5 mph 67 % 0.0 in
20:22 23.1 °F 16.9 °F 1015.1 in West 3.2 mph 11.3 mph 68 % 0.0 in
20:27 22.9 °F 16.7 °F 1015.1 in West 1.6 mph 12.9 mph 68 % 0.0 in
20:32 22.9 °F 16.7 °F 1015.1 in WNW 1.6 mph 12.9 mph 68 % 0.0 in
20:42 22.8 °F 16.6 °F 1015.1 in WNW 11.3 mph 12.9 mph 68 % 0.0 in
20:47 22.7 °F 16.7 °F 1015.1 in WNW 8.0 mph 11.3 mph 69 % 0.0 in
20:52 22.6 °F 16.8 °F 1015.1 in WNW 3.2 mph 14.5 mph 70 % 0.0 in
20:57 22.3 °F 16.3 °F 1015.1 in NW 9.7 mph 14.5 mph 69 % 0.0 in
21:02 22.2 °F 16.0 °F 1015.5 in WNW 11.3 mph 17.7 mph 68 % 0.0 in
21:12 21.8 °F 15.6 °F 1015.5 in WNW 1.6 mph 17.7 mph 68 % 0.0 in
21:17 21.7 °F 15.5 °F 1015.5 in WNW 8.0 mph 17.7 mph 68 % 0.0 in
21:22 21.6 °F 15.7 °F 1015.5 in West 3.2 mph 14.5 mph 69 % 0.0 in
21:32 21.3 °F 15.4 °F 1015.5 in WNW 8.0 mph 11.3 mph 69 % 0.0 in
21:42 21.1 °F 15.2 °F 1015.8 in WNW 6.4 mph 11.3 mph 69 % 0.0 in
21:47 21.0 °F 15.1 °F 1015.8 in WNW 6.4 mph 11.3 mph 69 % 0.0 in
21:52 20.9 °F 15.0 °F 1016.1 in WNW 9.7 mph 11.3 mph 69 % 0.0 in
21:57 20.8 °F 14.7 °F 1016.1 in West 3.2 mph 9.7 mph 68 % 0.0 in
22:02 20.7 °F 14.6 °F 1016.1 in WNW 4.8 mph 12.9 mph 68 % 0.0 in
22:07 20.7 °F 14.4 °F 1016.1 in WNW 3.2 mph 14.5 mph 67 % 0.0 in
22:13 20.7 °F 14.4 °F 1016.5 in WNW 6.4 mph 14.5 mph 67 % 0.0 in
22:22 20.6 °F 14.3 °F 1016.1 in NNW 8.0 mph 14.5 mph 67 % 0.0 in
22:32 20.4 °F 14.1 °F 1016.5 in Calm   12.9 mph 67 % 0.0 in
22:42 20.3 °F 14.2 °F 1016.5 in North 1.6 mph 14.5 mph 68 % 0.0 in
22:47 20.3 °F 14.2 °F 1016.5 in North 1.6 mph 14.5 mph 68 % 0.0 in
22:52 20.2 °F 14.3 °F 1016.8 in NNW 1.6 mph 12.9 mph 69 % 0.0 in
22:57 20.2 °F 14.3 °F 1016.8 in WNW 3.2 mph 8.0 mph 69 % 0.0 in
23:02 20.2 °F 14.3 °F 1016.8 in WNW 1.6 mph 8.0 mph 69 % 0.0 in
23:12 20.0 °F 14.4 °F 1016.8 in West 1.6 mph 6.4 mph 70 % 0.0 in
23:17 20.0 °F 14.6 °F 1017.2 in Calm   6.4 mph 71 % 0.0 in
23:22 19.9 °F 14.5 °F 1016.8 in Calm   1.6 mph 71 % 0.0 in
23:32 19.8 °F 14.6 °F 1016.8 in WNW 1.6 mph 1.6 mph 72 % 0.0 in
23:42 19.6 °F 14.4 °F 1016.8 in Calm   6.4 mph 72 % 0.0 in
23:52 19.4 °F 14.4 °F 1016.8 in Calm   3.2 mph 73 % 0.0 in
23:57 19.3 °F 14.3 °F 1016.8 in Calm   1.6 mph 73 % 0.0 in
Meteo18
Compliments of Weather Underground - 4 mb

Script developed by  Jim McMurry - jmcmurry@mwt.net Adapted for the template by  Wim van der Kuil - Leuven-Template.eu

You find our weather info also at:

European Weather Network

Weather Underground

Equipment we use:

Weather-station
Davis Vue

Weather-program
Meteobridge

Weather-server
Raspberry PI 2 B+

Provider
1 and 1

Davis Vue

Meteobridge

Raspberry PI 2 B+

1 and 1